sensor_id;sensor_type;location;lat;lon;timestamp;P1;durP1;ratioP1;P2;durP2;ratioP2
20393;SDS011;10356;50.544;9.642;2022-08-21T00:02:25;5.60;;;4.45;;
20393;SDS011;10356;50.544;9.642;2022-08-21T00:04:53;6.90;;;4.90;;
20393;SDS011;10356;50.544;9.642;2022-08-21T00:07:20;7.97;;;4.85;;
20393;SDS011;10356;50.544;9.642;2022-08-21T00:09:47;6.90;;;4.45;;
20393;SDS011;10356;50.544;9.642;2022-08-21T00:12:15;6.38;;;4.82;;
20393;SDS011;10356;50.544;9.642;2022-08-21T00:14:42;5.25;;;4.80;;
20393;SDS011;10356;50.544;9.642;2022-08-21T00:17:08;7.57;;;4.88;;
20393;SDS011;10356;50.544;9.642;2022-08-21T00:19:35;5.18;;;4.68;;
20393;SDS011;10356;50.544;9.642;2022-08-21T00:22:01;4.82;;;4.43;;
20393;SDS011;10356;50.544;9.642;2022-08-21T00:24:28;5.30;;;4.47;;
20393;SDS011;10356;50.544;9.642;2022-08-21T00:26:55;5.22;;;4.75;;
20393;SDS011;10356;50.544;9.642;2022-08-21T00:29:24;6.57;;;4.63;;
20393;SDS011;10356;50.544;9.642;2022-08-21T00:31:51;6.13;;;5.10;;
20393;SDS011;10356;50.544;9.642;2022-08-21T00:34:18;6.13;;;5.57;;
20393;SDS011;10356;50.544;9.642;2022-08-21T00:36:44;6.90;;;5.60;;
20393;SDS011;10356;50.544;9.642;2022-08-21T00:39:11;7.90;;;4.97;;
20393;SDS011;10356;50.544;9.642;2022-08-21T00:41:38;6.47;;;4.90;;
20393;SDS011;10356;50.544;9.642;2022-08-21T00:44:06;6.85;;;4.78;;
20393;SDS011;10356;50.544;9.642;2022-08-21T00:46:35;6.93;;;5.07;;
20393;SDS011;10356;50.544;9.642;2022-08-21T00:49:03;5.72;;;5.22;;
20393;SDS011;10356;50.544;9.642;2022-08-21T00:51:32;6.40;;;5.25;;
20393;SDS011;10356;50.544;9.642;2022-08-21T00:54:03;5.65;;;5.15;;
20393;SDS011;10356;50.544;9.642;2022-08-21T00:56:31;7.45;;;5.28;;
20393;SDS011;10356;50.544;9.642;2022-08-21T00:58:58;5.50;;;5.00;;
20393;SDS011;10356;50.544;9.642;2022-08-21T01:01:25;5.25;;;4.70;;
20393;SDS011;10356;50.544;9.642;2022-08-21T01:03:53;6.00;;;4.57;;
20393;SDS011;10356;50.544;9.642;2022-08-21T01:06:20;5.03;;;4.50;;
20393;SDS011;10356;50.544;9.642;2022-08-21T01:08:47;7.38;;;5.25;;
20393;SDS011;10356;50.544;9.642;2022-08-21T01:11:14;7.47;;;5.07;;
20393;SDS011;10356;50.544;9.642;2022-08-21T01:13:41;5.97;;;5.10;;
20393;SDS011;10356;50.544;9.642;2022-08-21T01:16:11;5.45;;;4.95;;
20393;SDS011;10356;50.544;9.642;2022-08-21T01:18:39;7.13;;;5.63;;
20393;SDS011;10356;50.544;9.642;2022-08-21T01:21:09;6.57;;;4.95;;
20393;SDS011;10356;50.544;9.642;2022-08-21T01:23:37;8.07;;;5.35;;
20393;SDS011;10356;50.544;9.642;2022-08-21T01:26:06;7.35;;;5.95;;
20393;SDS011;10356;50.544;9.642;2022-08-21T01:28:36;6.60;;;4.80;;
20393;SDS011;10356;50.544;9.642;2022-08-21T01:31:10;5.85;;;4.35;;
20393;SDS011;10356;50.544;9.642;2022-08-21T01:33:40;7.80;;;4.72;;
20393;SDS011;10356;50.544;9.642;2022-08-21T01:36:08;6.20;;;5.00;;
20393;SDS011;10356;50.544;9.642;2022-08-21T01:38:35;5.68;;;4.70;;
20393;SDS011;10356;50.544;9.642;2022-08-21T01:41:01;5.90;;;4.82;;
20393;SDS011;10356;50.544;9.642;2022-08-21T01:43:28;6.78;;;4.78;;
20393;SDS011;10356;50.544;9.642;2022-08-21T01:45:54;5.30;;;4.80;;
20393;SDS011;10356;50.544;9.642;2022-08-21T01:48:21;6.00;;;5.13;;
20393;SDS011;10356;50.544;9.642;2022-08-21T01:50:48;6.10;;;4.22;;
20393;SDS011;10356;50.544;9.642;2022-08-21T01:53:15;6.07;;;4.38;;
20393;SDS011;10356;50.544;9.642;2022-08-21T01:55:42;5.50;;;4.10;;
20393;SDS011;10356;50.544;9.642;2022-08-21T01:58:09;4.82;;;3.85;;
20393;SDS011;10356;50.544;9.642;2022-08-21T02:00:36;4.68;;;3.83;;
20393;SDS011;10356;50.544;9.642;2022-08-21T02:03:02;6.53;;;4.20;;
20393;SDS011;10356;50.544;9.642;2022-08-21T02:05:29;4.32;;;3.97;;
20393;SDS011;10356;50.544;9.642;2022-08-21T02:07:56;4.28;;;3.67;;
20393;SDS011;10356;50.544;9.642;2022-08-21T02:10:25;6.00;;;4.25;;
20393;SDS011;10356;50.544;9.642;2022-08-21T02:12:53;5.72;;;4.07;;
20393;SDS011;10356;50.544;9.642;2022-08-21T02:15:22;6.30;;;4.15;;
20393;SDS011;10356;50.544;9.642;2022-08-21T02:17:50;4.75;;;3.78;;
20393;SDS011;10356;50.544;9.642;2022-08-21T02:20:18;6.07;;;4.13;;
20393;SDS011;10356;50.544;9.642;2022-08-21T02:22:47;5.05;;;4.30;;
20393;SDS011;10356;50.544;9.642;2022-08-21T02:25:15;5.07;;;4.10;;
20393;SDS011;10356;50.544;9.642;2022-08-21T02:27:44;4.38;;;3.95;;
20393;SDS011;10356;50.544;9.642;2022-08-21T02:30:13;4.20;;;3.90;;
20393;SDS011;10356;50.544;9.642;2022-08-21T02:32:41;4.70;;;4.00;;
20393;SDS011;10356;50.544;9.642;2022-08-21T02:35:07;6.68;;;4.28;;
20393;SDS011;10356;50.544;9.642;2022-08-21T02:37:41;5.25;;;3.97;;
20393;SDS011;10356;50.544;9.642;2022-08-21T02:40:09;6.38;;;4.38;;
20393;SDS011;10356;50.544;9.642;2022-08-21T02:42:37;5.50;;;4.47;;
20393;SDS011;10356;50.544;9.642;2022-08-21T02:45:05;5.20;;;4.20;;
20393;SDS011;10356;50.544;9.642;2022-08-21T02:47:32;5.30;;;3.97;;
20393;SDS011;10356;50.544;9.642;2022-08-21T02:49:59;5.90;;;3.90;;
20393;SDS011;10356;50.544;9.642;2022-08-21T02:52:25;6.03;;;4.05;;
20393;SDS011;10356;50.544;9.642;2022-08-21T02:54:52;6.75;;;5.82;;
20393;SDS011;10356;50.544;9.642;2022-08-21T02:57:19;7.03;;;5.45;;
20393;SDS011;10356;50.544;9.642;2022-08-21T02:59:45;5.93;;;5.30;;
20393;SDS011;10356;50.544;9.642;2022-08-21T03:02:13;6.28;;;5.32;;
20393;SDS011;10356;50.544;9.642;2022-08-21T03:04:39;12.43;;;6.28;;
20393;SDS011;10356;50.544;9.642;2022-08-21T03:07:06;6.90;;;5.60;;
20393;SDS011;10356;50.544;9.642;2022-08-21T03:09:32;9.00;;;6.10;;
20393;SDS011;10356;50.544;9.642;2022-08-21T03:11:59;6.60;;;6.00;;
20393;SDS011;10356;50.544;9.642;2022-08-21T03:14:25;6.30;;;5.70;;
20393;SDS011;10356;50.544;9.642;2022-08-21T03:16:52;8.45;;;6.85;;
20393;SDS011;10356;50.544;9.642;2022-08-21T03:19:20;9.45;;;7.43;;
20393;SDS011;10356;50.544;9.642;2022-08-21T03:21:46;9.40;;;6.55;;
20393;SDS011;10356;50.544;9.642;2022-08-21T03:24:13;10.23;;;6.68;;
20393;SDS011;10356;50.544;9.642;2022-08-21T03:26:39;10.90;;;6.78;;
20393;SDS011;10356;50.544;9.642;2022-08-21T03:29:06;7.95;;;6.20;;
20393;SDS011;10356;50.544;9.642;2022-08-21T03:31:32;7.80;;;5.95;;
20393;SDS011;10356;50.544;9.642;2022-08-21T03:33:59;6.40;;;5.68;;
20393;SDS011;10356;50.544;9.642;2022-08-21T03:36:26;9.70;;;6.22;;
20393;SDS011;10356;50.544;9.642;2022-08-21T03:38:53;7.18;;;6.00;;
20393;SDS011;10356;50.544;9.642;2022-08-21T03:41:20;6.75;;;6.15;;
20393;SDS011;10356;50.544;9.642;2022-08-21T03:43:47;5.93;;;5.43;;
20393;SDS011;10356;50.544;9.642;2022-08-21T03:46:14;6.70;;;5.32;;
20393;SDS011;10356;50.544;9.642;2022-08-21T03:48:40;9.27;;;5.10;;
20393;SDS011;10356;50.544;9.642;2022-08-21T03:51:07;8.15;;;5.50;;
20393;SDS011;10356;50.544;9.642;2022-08-21T03:53:35;6.18;;;4.90;;
20393;SDS011;10356;50.544;9.642;2022-08-21T03:56:02;5.85;;;5.28;;
20393;SDS011;10356;50.544;9.642;2022-08-21T03:58:29;5.63;;;4.78;;
20393;SDS011;10356;50.544;9.642;2022-08-21T04:00:56;5.55;;;5.05;;
20393;SDS011;10356;50.544;9.642;2022-08-21T04:03:25;6.38;;;5.22;;
20393;SDS011;10356;50.544;9.642;2022-08-21T04:05:52;5.22;;;4.70;;
20393;SDS011;10356;50.544;9.642;2022-08-21T04:08:18;8.68;;;4.85;;
20393;SDS011;10356;50.544;9.642;2022-08-21T04:10:48;9.63;;;6.50;;
20393;SDS011;10356;50.544;9.642;2022-08-21T04:13:16;6.07;;;4.90;;
20393;SDS011;10356;50.544;9.642;2022-08-21T04:15:43;9.10;;;5.03;;
20393;SDS011;10356;50.544;9.642;2022-08-21T04:18:10;5.10;;;4.60;;
20393;SDS011;10356;50.544;9.642;2022-08-21T04:20:37;11.80;;;5.18;;
20393;SDS011;10356;50.544;9.642;2022-08-21T04:23:05;5.20;;;4.47;;
20393;SDS011;10356;50.544;9.642;2022-08-21T04:25:32;5.97;;;4.43;;
20393;SDS011;10356;50.544;9.642;2022-08-21T04:28:00;6.47;;;4.80;;
20393;SDS011;10356;50.544;9.642;2022-08-21T04:30:27;5.20;;;4.47;;
20393;SDS011;10356;50.544;9.642;2022-08-21T04:32:54;4.40;;;4.00;;
20393;SDS011;10356;50.544;9.642;2022-08-21T04:35:22;6.85;;;5.25;;
20393;SDS011;10356;50.544;9.642;2022-08-21T04:37:49;17.80;;;6.68;;
20393;SDS011;10356;50.544;9.642;2022-08-21T04:40:17;7.18;;;5.95;;
20393;SDS011;10356;50.544;9.642;2022-08-21T04:42:47;26.92;;;6.15;;
20393;SDS011;10356;50.544;9.642;2022-08-21T04:45:17;7.75;;;6.20;;
20393;SDS011;10356;50.544;9.642;2022-08-21T04:47:47;9.07;;;5.78;;
20393;SDS011;10356;50.544;9.642;2022-08-21T04:50:15;6.18;;;5.55;;
20393;SDS011;10356;50.544;9.642;2022-08-21T04:52:42;19.58;;;6.00;;
20393;SDS011;10356;50.544;9.642;2022-08-21T04:55:09;10.27;;;6.00;;
20393;SDS011;10356;50.544;9.642;2022-08-21T04:57:36;8.85;;;5.60;;
20393;SDS011;10356;50.544;9.642;2022-08-21T05:00:04;5.53;;;5.03;;
20393;SDS011;10356;50.544;9.642;2022-08-21T05:02:33;7.57;;;5.85;;
20393;SDS011;10356;50.544;9.642;2022-08-21T05:04:59;14.10;;;6.63;;
20393;SDS011;10356;50.544;9.642;2022-08-21T05:07:27;6.93;;;6.07;;
20393;SDS011;10356;50.544;9.642;2022-08-21T05:09:55;44.75;;;7.50;;
20393;SDS011;10356;50.544;9.642;2022-08-21T05:12:24;71.80;;;8.48;;
20393;SDS011;10356;50.544;9.642;2022-08-21T05:14:51;69.22;;;8.85;;
20393;SDS011;10356;50.544;9.642;2022-08-21T05:17:17;207.00;;;10.52;;
20393;SDS011;10356;50.544;9.642;2022-08-21T05:19:45;54.45;;;6.63;;
20393;SDS011;10356;50.544;9.642;2022-08-21T05:22:18;89.57;;;8.02;;
20393;SDS011;10356;50.544;9.642;2022-08-21T05:24:45;95.18;;;7.55;;
20393;SDS011;10356;50.544;9.642;2022-08-21T05:27:11;65.80;;;7.57;;
20393;SDS011;10356;50.544;9.642;2022-08-21T05:29:38;53.65;;;6.93;;
20393;SDS011;10356;50.544;9.642;2022-08-21T05:32:07;57.67;;;7.05;;
20393;SDS011;10356;50.544;9.642;2022-08-21T05:34:34;37.60;;;7.85;;
20393;SDS011;10356;50.544;9.642;2022-08-21T05:37:02;77.95;;;8.18;;
20393;SDS011;10356;50.544;9.642;2022-08-21T05:39:29;61.30;;;8.15;;
20393;SDS011;10356;50.544;9.642;2022-08-21T05:41:56;29.23;;;7.97;;
20393;SDS011;10356;50.544;9.642;2022-08-21T05:44:22;61.85;;;9.00;;
20393;SDS011;10356;50.544;9.642;2022-08-21T05:46:49;40.58;;;6.85;;
20393;SDS011;10356;50.544;9.642;2022-08-21T05:49:15;28.20;;;7.65;;
20393;SDS011;10356;50.544;9.642;2022-08-21T05:51:42;40.10;;;7.18;;
20393;SDS011;10356;50.544;9.642;2022-08-21T05:54:10;24.75;;;7.55;;
20393;SDS011;10356;50.544;9.642;2022-08-21T05:56:37;32.65;;;7.13;;
20393;SDS011;10356;50.544;9.642;2022-08-21T05:59:03;61.10;;;8.77;;
20393;SDS011;10356;50.544;9.642;2022-08-21T06:01:30;27.27;;;7.47;;
20393;SDS011;10356;50.544;9.642;2022-08-21T06:03:56;39.40;;;9.02;;
20393;SDS011;10356;50.544;9.642;2022-08-21T06:06:23;82.90;;;9.40;;
20393;SDS011;10356;50.544;9.642;2022-08-21T06:08:49;71.60;;;8.70;;
20393;SDS011;10356;50.544;9.642;2022-08-21T06:11:18;34.90;;;9.10;;
20393;SDS011;10356;50.544;9.642;2022-08-21T06:13:45;97.53;;;10.13;;
20393;SDS011;10356;50.544;9.642;2022-08-21T06:16:13;140.10;;;11.82;;
20393;SDS011;10356;50.544;9.642;2022-08-21T06:18:41;50.17;;;8.88;;
20393;SDS011;10356;50.544;9.642;2022-08-21T06:21:09;31.30;;;9.13;;
20393;SDS011;10356;50.544;9.642;2022-08-21T06:23:36;32.03;;;8.70;;
20393;SDS011;10356;50.544;9.642;2022-08-21T06:26:04;51.45;;;9.98;;
20393;SDS011;10356;50.544;9.642;2022-08-21T06:28:33;114.93;;;10.93;;
20393;SDS011;10356;50.544;9.642;2022-08-21T06:31:01;119.70;;;11.18;;
20393;SDS011;10356;50.544;9.642;2022-08-21T06:33:27;138.32;;;12.35;;
20393;SDS011;10356;50.544;9.642;2022-08-21T06:35:54;43.55;;;9.95;;
20393;SDS011;10356;50.544;9.642;2022-08-21T06:38:20;37.80;;;9.13;;
20393;SDS011;10356;50.544;9.642;2022-08-21T06:40:47;58.50;;;9.98;;
20393;SDS011;10356;50.544;9.642;2022-08-21T06:43:15;26.83;;;9.48;;
20393;SDS011;10356;50.544;9.642;2022-08-21T06:45:44;33.92;;;9.32;;
20393;SDS011;10356;50.544;9.642;2022-08-21T06:48:10;25.45;;;9.55;;
20393;SDS011;10356;50.544;9.642;2022-08-21T06:50:37;25.65;;;9.27;;
20393;SDS011;10356;50.544;9.642;2022-08-21T06:53:05;25.88;;;9.23;;
20393;SDS011;10356;50.544;9.642;2022-08-21T06:55:33;18.92;;;9.05;;
20393;SDS011;10356;50.544;9.642;2022-08-21T06:58:00;9.65;;;8.75;;
20393;SDS011;10356;50.544;9.642;2022-08-21T07:00:27;9.32;;;8.38;;
20393;SDS011;10356;50.544;9.642;2022-08-21T07:02:55;8.52;;;7.70;;
20393;SDS011;10356;50.544;9.642;2022-08-21T07:05:21;10.63;;;8.40;;
20393;SDS011;10356;50.544;9.642;2022-08-21T07:07:50;8.30;;;7.50;;
20393;SDS011;10356;50.544;9.642;2022-08-21T07:10:17;9.57;;;8.60;;
20393;SDS011;10356;50.544;9.642;2022-08-21T07:12:44;10.75;;;9.75;;
20393;SDS011;10356;50.544;9.642;2022-08-21T07:15:10;12.40;;;8.77;;
20393;SDS011;10356;50.544;9.642;2022-08-21T07:17:37;10.35;;;7.53;;
20393;SDS011;10356;50.544;9.642;2022-08-21T07:20:05;11.65;;;8.18;;
20393;SDS011;10356;50.544;9.642;2022-08-21T07:22:33;9.43;;;8.63;;
20393;SDS011;10356;50.544;9.642;2022-08-21T07:25:02;8.82;;;8.02;;
20393;SDS011;10356;50.544;9.642;2022-08-21T07:27:29;9.27;;;8.38;;
20393;SDS011;10356;50.544;9.642;2022-08-21T07:29:56;9.60;;;8.70;;
20393;SDS011;10356;50.544;9.642;2022-08-21T07:32:23;9.18;;;8.27;;
20393;SDS011;10356;50.544;9.642;2022-08-21T07:34:50;7.97;;;7.30;;
20393;SDS011;10356;50.544;9.642;2022-08-21T07:37:18;10.32;;;8.98;;
20393;SDS011;10356;50.544;9.642;2022-08-21T07:39:45;9.00;;;8.10;;
20393;SDS011;10356;50.544;9.642;2022-08-21T07:42:13;9.20;;;8.30;;
20393;SDS011;10356;50.544;9.642;2022-08-21T07:44:40;9.27;;;8.38;;
20393;SDS011;10356;50.544;9.642;2022-08-21T07:47:07;14.05;;;10.95;;
20393;SDS011;10356;50.544;9.642;2022-08-21T07:49:34;12.52;;;10.63;;
20393;SDS011;10356;50.544;9.642;2022-08-21T09:22:56;6.97;;;3.70;;
20393;SDS011;10356;50.544;9.642;2022-08-21T09:25:31;9.38;;;4.22;;
20393;SDS011;10356;50.544;9.642;2022-08-21T09:28:00;7.35;;;4.47;;
20393;SDS011;10356;50.544;9.642;2022-08-21T09:30:28;9.43;;;4.97;;
20393;SDS011;10356;50.544;9.642;2022-08-21T09:32:56;8.55;;;4.72;;
20393;SDS011;10356;50.544;9.642;2022-08-21T09:35:23;9.20;;;4.03;;
20393;SDS011;10356;50.544;9.642;2022-08-21T09:37:52;11.57;;;3.83;;
20393;SDS011;10356;50.544;9.642;2022-08-21T09:40:27;9.13;;;3.63;;
20393;SDS011;10356;50.544;9.642;2022-08-21T09:42:57;8.07;;;3.55;;
20393;SDS011;10356;50.544;9.642;2022-08-21T09:45:25;10.65;;;3.63;;
20393;SDS011;10356;50.544;9.642;2022-08-21T09:47:51;8.23;;;3.38;;
20393;SDS011;10356;50.544;9.642;2022-08-21T09:50:20;7.47;;;3.83;;
20393;SDS011;10356;50.544;9.642;2022-08-21T09:52:48;8.95;;;3.47;;
20393;SDS011;10356;50.544;9.642;2022-08-21T09:55:21;10.38;;;3.90;;
20393;SDS011;10356;50.544;9.642;2022-08-21T09:58:14;9.27;;;3.28;;
20393;SDS011;10356;50.544;9.642;2022-08-21T10:00:41;9.07;;;3.85;;
20393;SDS011;10356;50.544;9.642;2022-08-21T10:03:09;8.70;;;3.78;;
20393;SDS011;10356;50.544;9.642;2022-08-21T10:05:39;7.18;;;3.47;;
20393;SDS011;10356;50.544;9.642;2022-08-21T10:08:15;7.00;;;3.45;;
20393;SDS011;10356;50.544;9.642;2022-08-21T10:10:45;6.28;;;3.88;;
20393;SDS011;10356;50.544;9.642;2022-08-21T10:13:19;7.50;;;4.10;;
20393;SDS011;10356;50.544;9.642;2022-08-21T10:15:53;7.07;;;3.45;;
20393;SDS011;10356;50.544;9.642;2022-08-21T10:18:34;6.22;;;3.22;;
20393;SDS011;10356;50.544;9.642;2022-08-21T10:21:07;6.95;;;3.42;;
20393;SDS011;10356;50.544;9.642;2022-08-21T10:23:42;5.70;;;3.42;;
20393;SDS011;10356;50.544;9.642;2022-08-21T10:26:25;7.93;;;3.58;;
20393;SDS011;10356;50.544;9.642;2022-08-21T10:28:59;10.10;;;3.83;;
20393;SDS011;10356;50.544;9.642;2022-08-21T10:31:36;9.10;;;3.83;;
20393;SDS011;10356;50.544;9.642;2022-08-21T10:34:16;8.23;;;3.33;;
20393;SDS011;10356;50.544;9.642;2022-08-21T10:36:58;7.20;;;3.55;;
20393;SDS011;10356;50.544;9.642;2022-08-21T10:39:39;5.45;;;3.13;;
20393;SDS011;10356;50.544;9.642;2022-08-21T10:45:14;7.28;;;3.58;;
20393;SDS011;10356;50.544;9.642;2022-08-21T10:47:47;9.75;;;3.83;;
20393;SDS011;10356;50.544;9.642;2022-08-21T10:50:17;7.72;;;3.65;;
20393;SDS011;10356;50.544;9.642;2022-08-21T10:53:02;9.25;;;3.17;;
20393;SDS011;10356;50.544;9.642;2022-08-21T10:55:36;10.02;;;3.38;;
20393;SDS011;10356;50.544;9.642;2022-08-21T10:58:09;8.75;;;3.35;;
20393;SDS011;10356;50.544;9.642;2022-08-21T11:00:39;5.57;;;2.72;;
20393;SDS011;10356;50.544;9.642;2022-08-21T11:03:10;7.00;;;3.17;;
20393;SDS011;10356;50.544;9.642;2022-08-21T11:05:40;5.03;;;2.85;;
20393;SDS011;10356;50.544;9.642;2022-08-21T11:08:13;7.47;;;3.10;;
20393;SDS011;10356;50.544;9.642;2022-08-21T11:10:44;6.10;;;3.00;;
20393;SDS011;10356;50.544;9.642;2022-08-21T11:13:19;9.25;;;3.35;;
20393;SDS011;10356;50.544;9.642;2022-08-21T11:15:53;8.15;;;3.05;;
20393;SDS011;10356;50.544;9.642;2022-08-21T11:18:24;6.20;;;2.85;;
20393;SDS011;10356;50.544;9.642;2022-08-21T11:20:59;6.78;;;3.05;;
20393;SDS011;10356;50.544;9.642;2022-08-21T11:23:31;6.38;;;3.03;;
20393;SDS011;10356;50.544;9.642;2022-08-21T11:26:05;9.05;;;3.10;;
20393;SDS011;10356;50.544;9.642;2022-08-21T11:28:43;8.95;;;3.08;;
20393;SDS011;10356;50.544;9.642;2022-08-21T11:31:22;9.45;;;3.63;;
20393;SDS011;10356;50.544;9.642;2022-08-21T11:34:06;5.13;;;2.97;;
20393;SDS011;10356;50.544;9.642;2022-08-21T11:36:43;7.93;;;3.63;;
20393;SDS011;10356;50.544;9.642;2022-08-21T11:39:25;7.35;;;3.15;;
20393;SDS011;10356;50.544;9.642;2022-08-21T11:41:59;8.05;;;3.10;;
20393;SDS011;10356;50.544;9.642;2022-08-21T11:44:39;7.22;;;3.10;;
20393;SDS011;10356;50.544;9.642;2022-08-21T11:47:17;7.88;;;2.65;;
20393;SDS011;10356;50.544;9.642;2022-08-21T11:49:55;11.25;;;3.17;;
20393;SDS011;10356;50.544;9.642;2022-08-21T11:52:29;7.70;;;3.00;;
20393;SDS011;10356;50.544;9.642;2022-08-21T11:55:02;5.78;;;2.78;;
20393;SDS011;10356;50.544;9.642;2022-08-21T11:57:34;7.32;;;2.53;;
20393;SDS011;10356;50.544;9.642;2022-08-21T12:00:07;5.47;;;2.90;;
20393;SDS011;10356;50.544;9.642;2022-08-21T12:02:41;6.15;;;2.90;;
20393;SDS011;10356;50.544;9.642;2022-08-21T12:05:20;6.93;;;2.90;;
20393;SDS011;10356;50.544;9.642;2022-08-21T12:07:59;8.98;;;3.47;;
20393;SDS011;10356;50.544;9.642;2022-08-21T12:10:31;8.00;;;2.92;;
20393;SDS011;10356;50.544;9.642;2022-08-21T12:13:05;6.93;;;2.70;;
20393;SDS011;10356;50.544;9.642;2022-08-21T12:15:35;6.25;;;2.90;;
20393;SDS011;10356;50.544;9.642;2022-08-21T12:18:03;7.50;;;3.10;;
20393;SDS011;10356;50.544;9.642;2022-08-21T12:20:36;8.13;;;2.85;;
20393;SDS011;10356;50.544;9.642;2022-08-21T12:23:16;4.97;;;2.55;;
20393;SDS011;10356;50.544;9.642;2022-08-21T12:25:59;4.93;;;2.60;;
20393;SDS011;10356;50.544;9.642;2022-08-21T12:28:28;5.72;;;2.55;;
20393;SDS011;10356;50.544;9.642;2022-08-21T12:30:58;8.07;;;2.47;;
20393;SDS011;10356;50.544;9.642;2022-08-21T12:33:26;5.47;;;2.88;;
20393;SDS011;10356;50.544;9.642;2022-08-21T12:36:01;5.90;;;2.70;;
20393;SDS011;10356;50.544;9.642;2022-08-21T12:38:32;5.47;;;2.60;;
20393;SDS011;10356;50.544;9.642;2022-08-21T12:41:06;6.00;;;3.20;;
20393;SDS011;10356;50.544;9.642;2022-08-21T12:43:37;6.72;;;2.72;;
20393;SDS011;10356;50.544;9.642;2022-08-21T12:46:14;7.72;;;2.83;;
20393;SDS011;10356;50.544;9.642;2022-08-21T12:48:44;3.35;;;2.47;;
20393;SDS011;10356;50.544;9.642;2022-08-21T12:51:17;5.93;;;3.10;;
20393;SDS011;10356;50.544;9.642;2022-08-21T12:53:50;6.22;;;3.10;;
20393;SDS011;10356;50.544;9.642;2022-08-21T12:56:19;6.25;;;2.83;;
20393;SDS011;10356;50.544;9.642;2022-08-21T12:58:49;4.53;;;2.70;;
20393;SDS011;10356;50.544;9.642;2022-08-21T13:01:21;6.07;;;3.40;;
20393;SDS011;10356;50.544;9.642;2022-08-21T13:03:50;4.35;;;2.75;;
20393;SDS011;10356;50.544;9.642;2022-08-21T13:06:19;4.78;;;2.45;;
20393;SDS011;10356;50.544;9.642;2022-08-21T13:08:50;5.97;;;3.00;;
20393;SDS011;10356;50.544;9.642;2022-08-21T13:11:22;4.35;;;2.78;;
20393;SDS011;10356;50.544;9.642;2022-08-21T13:13:50;5.03;;;2.92;;
20393;SDS011;10356;50.544;9.642;2022-08-21T13:16:18;5.68;;;2.85;;
20393;SDS011;10356;50.544;9.642;2022-08-21T13:18:55;6.35;;;2.95;;
20393;SDS011;10356;50.544;9.642;2022-08-21T13:21:27;5.95;;;2.65;;
20393;SDS011;10356;50.544;9.642;2022-08-21T13:24:06;5.10;;;2.90;;
20393;SDS011;10356;50.544;9.642;2022-08-21T13:26:39;4.10;;;2.70;;
20393;SDS011;10356;50.544;9.642;2022-08-21T13:29:06;6.07;;;3.05;;
20393;SDS011;10356;50.544;9.642;2022-08-21T13:31:37;4.43;;;2.97;;
20393;SDS011;10356;50.544;9.642;2022-08-21T13:34:07;5.60;;;2.83;;
20393;SDS011;10356;50.544;9.642;2022-08-21T13:36:37;5.68;;;2.75;;
20393;SDS011;10356;50.544;9.642;2022-08-21T13:39:07;4.72;;;2.72;;
20393;SDS011;10356;50.544;9.642;2022-08-21T13:41:37;4.00;;;2.35;;
20393;SDS011;10356;50.544;9.642;2022-08-21T13:44:14;7.22;;;3.00;;
20393;SDS011;10356;50.544;9.642;2022-08-21T13:46:44;4.07;;;2.45;;
20393;SDS011;10356;50.544;9.642;2022-08-21T13:49:14;4.90;;;2.50;;
20393;SDS011;10356;50.544;9.642;2022-08-21T13:51:42;6.35;;;3.05;;
20393;SDS011;10356;50.544;9.642;2022-08-21T13:54:14;5.28;;;2.50;;
20393;SDS011;10356;50.544;9.642;2022-08-21T13:56:42;5.78;;;2.75;;
20393;SDS011;10356;50.544;9.642;2022-08-21T13:59:10;5.88;;;2.90;;
20393;SDS011;10356;50.544;9.642;2022-08-21T14:01:37;3.85;;;2.40;;
20393;SDS011;10356;50.544;9.642;2022-08-21T14:04:16;6.03;;;2.90;;
20393;SDS011;10356;50.544;9.642;2022-08-21T14:06:48;6.82;;;2.83;;
20393;SDS011;10356;50.544;9.642;2022-08-21T14:09:20;4.75;;;2.55;;
20393;SDS011;10356;50.544;9.642;2022-08-21T14:11:52;3.47;;;2.55;;
20393;SDS011;10356;50.544;9.642;2022-08-21T14:14:20;4.85;;;2.65;;
20393;SDS011;10356;50.544;9.642;2022-08-21T14:16:53;3.97;;;2.60;;
20393;SDS011;10356;50.544;9.642;2022-08-21T14:19:23;4.55;;;2.45;;
20393;SDS011;10356;50.544;9.642;2022-08-21T14:21:51;3.65;;;2.20;;
20393;SDS011;10356;50.544;9.642;2022-08-21T14:24:25;6.22;;;2.92;;
20393;SDS011;10356;50.544;9.642;2022-08-21T14:26:54;4.05;;;2.47;;
20393;SDS011;10356;50.544;9.642;2022-08-21T14:29:24;4.95;;;2.70;;
20393;SDS011;10356;50.544;9.642;2022-08-21T14:31:54;4.82;;;2.47;;
20393;SDS011;10356;50.544;9.642;2022-08-21T14:34:26;3.50;;;2.50;;
20393;SDS011;10356;50.544;9.642;2022-08-21T14:36:54;5.53;;;2.55;;
20393;SDS011;10356;50.544;9.642;2022-08-21T14:39:21;5.75;;;2.20;;
20393;SDS011;10356;50.544;9.642;2022-08-21T14:41:48;4.28;;;2.55;;
20393;SDS011;10356;50.544;9.642;2022-08-21T14:44:16;3.33;;;2.22;;
20393;SDS011;10356;50.544;9.642;2022-08-21T14:46:44;5.28;;;2.58;;
20393;SDS011;10356;50.544;9.642;2022-08-21T14:49:12;5.25;;;2.60;;
20393;SDS011;10356;50.544;9.642;2022-08-21T14:51:40;4.85;;;2.40;;
20393;SDS011;10356;50.544;9.642;2022-08-21T14:54:06;5.45;;;2.30;;
20393;SDS011;10356;50.544;9.642;2022-08-21T14:56:33;4.13;;;2.25;;
20393;SDS011;10356;50.544;9.642;2022-08-21T14:59:02;3.60;;;2.17;;
20393;SDS011;10356;50.544;9.642;2022-08-21T15:01:30;4.60;;;2.30;;
20393;SDS011;10356;50.544;9.642;2022-08-21T15:04:00;4.65;;;2.13;;
20393;SDS011;10356;50.544;9.642;2022-08-21T15:06:27;6.70;;;2.17;;
20393;SDS011;10356;50.544;9.642;2022-08-21T15:08:55;3.55;;;2.35;;
20393;SDS011;10356;50.544;9.642;2022-08-21T15:11:22;3.45;;;2.22;;
20393;SDS011;10356;50.544;9.642;2022-08-21T15:13:53;3.85;;;2.80;;
20393;SDS011;10356;50.544;9.642;2022-08-21T15:16:23;5.97;;;2.97;;
20393;SDS011;10356;50.544;9.642;2022-08-21T15:18:50;4.97;;;2.20;;
20393;SDS011;10356;50.544;9.642;2022-08-21T15:21:17;6.05;;;2.97;;
20393;SDS011;10356;50.544;9.642;2022-08-21T15:23:43;4.25;;;2.42;;
20393;SDS011;10356;50.544;9.642;2022-08-21T15:26:11;5.35;;;2.33;;
20393;SDS011;10356;50.544;9.642;2022-08-21T15:28:38;3.38;;;2.13;;
20393;SDS011;10356;50.544;9.642;2022-08-21T15:31:05;2.80;;;2.22;;
20393;SDS011;10356;50.544;9.642;2022-08-21T15:33:32;4.82;;;2.17;;
20393;SDS011;10356;50.544;9.642;2022-08-21T15:35:58;5.03;;;2.30;;
20393;SDS011;10356;50.544;9.642;2022-08-21T15:38:25;5.35;;;2.45;;
20393;SDS011;10356;50.544;9.642;2022-08-21T15:40:52;3.70;;;2.20;;
20393;SDS011;10356;50.544;9.642;2022-08-21T15:43:23;4.47;;;2.50;;
20393;SDS011;10356;50.544;9.642;2022-08-21T15:45:52;4.40;;;2.63;;
20393;SDS011;10356;50.544;9.642;2022-08-21T15:48:19;4.07;;;2.33;;
20393;SDS011;10356;50.544;9.642;2022-08-21T15:50:46;5.70;;;2.00;;
20393;SDS011;10356;50.544;9.642;2022-08-21T15:53:12;5.10;;;1.92;;
20393;SDS011;10356;50.544;9.642;2022-08-21T15:55:39;3.25;;;2.22;;
20393;SDS011;10356;50.544;9.642;2022-08-21T15:58:06;3.40;;;2.03;;
20393;SDS011;10356;50.544;9.642;2022-08-21T16:00:38;4.95;;;2.38;;
20393;SDS011;10356;50.544;9.642;2022-08-21T16:03:08;4.57;;;2.33;;
20393;SDS011;10356;50.544;9.642;2022-08-21T16:05:39;3.85;;;1.85;;
20393;SDS011;10356;50.544;9.642;2022-08-21T16:08:05;3.03;;;2.10;;
20393;SDS011;10356;50.544;9.642;2022-08-21T16:10:35;4.25;;;1.85;;
20393;SDS011;10356;50.544;9.642;2022-08-21T16:13:03;4.00;;;1.98;;
20393;SDS011;10356;50.544;9.642;2022-08-21T16:15:31;2.53;;;1.58;;
20393;SDS011;10356;50.544;9.642;2022-08-21T16:17:59;4.43;;;2.13;;
20393;SDS011;10356;50.544;9.642;2022-08-21T16:20:27;3.13;;;2.03;;
20393;SDS011;10356;50.544;9.642;2022-08-21T16:22:55;6.65;;;1.95;;
20393;SDS011;10356;50.544;9.642;2022-08-21T16:25:23;5.40;;;2.30;;
20393;SDS011;10356;50.544;9.642;2022-08-21T16:27:51;4.53;;;2.08;;
20393;SDS011;10356;50.544;9.642;2022-08-21T16:30:19;3.53;;;1.83;;
20393;SDS011;10356;50.544;9.642;2022-08-21T16:32:47;2.90;;;1.90;;